Time;durP1;ratioP1;P1;durP2;ratioP2;P2;SDS_P1;SDS_P2;PMS_P1;PMS_P2;Temp;Humidity;BMP_temperature;BMP_pressure;BME280_temperature;BME280_humidity;BME280_pressure;Samples;Min_cycle;Max_cycle;Signal;HPM_P1;HPM_P2
2023/10/04 00:01:59;;;;;;;6.13;3.20;;;;;;;15.14;99.28;99284.84;4121745;28;21267;-85
2023/10/04 00:04:10;;;;;;;4.40;3.03;;;;;;;15.13;99.92;99289.25;4115003;28;20654;-86
2023/10/04 00:06:34;;;;;;;5.37;3.00;;;;;;;15.07;98.21;99286.19;4120958;28;20679;-85
2023/10/04 00:08:39;;;;;;;3.53;2.10;;;;;;;14.98;97.61;99283.34;4124337;28;20619;-85
2023/10/04 00:10:46;;;;;;;3.23;2.00;;;;;;;14.86;95.24;99285.00;4124282;28;20635;-86
2023/10/04 00:13:10;;;;;;;4.87;2.80;;;;;;;14.78;94.85;99284.69;4123666;28;20638;-85
2023/10/04 00:15:33;;;;;;;2.90;2.50;;;;;;;14.70;96.23;99279.09;4123109;28;20994;-85
2023/10/04 00:17:57;;;;;;;3.90;2.70;;;;;;;14.68;95.87;99282.75;4115207;28;20661;-85
2023/10/04 00:20:16;;;;;;;3.70;2.87;;;;;;;14.66;96.69;99280.22;4136550;28;21385;-85
2023/10/04 00:22:40;;;;;;;4.90;2.90;;;;;;;14.65;96.85;99286.41;4121364;28;20689;-85
2023/10/04 00:25:11;;;;;;;4.00;2.77;;;;;;;14.66;96.76;99297.78;4126442;28;21178;-84
2023/10/04 00:27:18;;;;;;;3.83;3.20;;;;;;;14.66;98.24;99292.53;4128078;28;20657;-85
2023/10/04 00:29:41;;;;;;;4.73;3.17;;;;;;;14.64;97.84;99300.50;4112819;28;21084;-85
2023/10/04 00:31:47;;;;;;;4.30;2.90;;;;;;;14.63;98.28;99290.94;4127075;28;20630;-85
2023/10/04 00:34:10;;;;;;;4.30;2.90;;;;;;;14.62;98.56;99291.03;4127543;28;20727;-86
2023/10/04 00:36:21;;;;;;;3.80;2.23;;;;;;;14.60;97.67;99291.13;4128808;28;20654;-85
2023/10/04 00:38:44;;;;;;;4.83;3.13;;;;;;;14.58;97.84;99299.19;4126211;28;20670;-85
2023/10/04 00:41:09;;;;;;;3.50;2.67;;;;;;;14.53;96.51;99298.66;4115087;28;20739;-85
2023/10/04 00:43:19;;;;;;;4.00;2.77;;;;;;;14.45;96.30;99300.94;4127080;28;20650;-85
2023/10/04 00:45:45;;;;;;;4.20;2.53;;;;;;;14.41;96.55;99310.78;4125442;28;20614;-85
2023/10/04 00:48:11;;;;;;;6.13;3.50;;;;;;;14.36;96.62;99302.38;4127509;28;20673;-86
2023/10/04 00:50:18;;;;;;;4.00;2.43;;;;;;;14.31;96.37;99293.97;4111554;28;20634;-88
2023/10/04 00:52:46;;;;;;;6.27;2.80;;;;;;;14.24;94.60;99290.03;4114023;28;21174;-88
2023/10/04 00:55:10;;;;;;;3.93;2.40;;;;;;;14.15;94.30;99281.91;4122774;28;20625;-89
2023/10/04 00:57:35;;;;;;;3.97;2.40;;;;;;;14.03;94.31;99281.81;4113055;28;20710;-89
2023/10/04 00:59:42;;;;;;;3.10;2.40;;;;;;;14.01;94.62;99288.94;4128241;28;20685;-89
2023/10/04 01:02:06;;;;;;;3.17;2.37;;;;;;;14.00;95.21;99285.47;4124639;28;20674;-89
2023/10/04 01:04:15;;;;;;;4.10;2.50;;;;;;;14.02;95.63;99288.00;4111177;28;20645;-89
2023/10/04 01:06:22;;;;;;;4.60;2.93;;;;;;;14.02;95.90;99294.06;4107595;28;21194;-87
2023/10/04 01:08:47;;;;;;;4.27;2.90;;;;;;;14.02;96.12;99291.44;4128556;28;20668;-90
2023/10/04 01:11:11;;;;;;;3.63;2.70;;;;;;;13.97;95.74;99283.03;4126310;28;20693;-89
2023/10/04 01:13:34;;;;;;;5.37;3.40;;;;;;;13.93;95.16;99283.31;4127834;28;20632;-89
2023/10/04 01:15:59;;;;;;;4.90;3.17;;;;;;;13.84;95.26;99287.34;4125245;28;21368;-88
2023/10/04 01:18:23;;;;;;;2.63;1.87;;;;;;;13.67;92.75;99279.69;4112882;28;20657;-89
2023/10/04 01:20:30;;;;;;;3.80;2.20;;;;;;;13.54;93.07;99277.09;4117549;28;20638;-89
2023/10/04 01:22:59;;;;;;;2.50;1.70;;;;;;;13.46;92.00;99280.16;4124673;28;20627;-89
2023/10/04 01:25:25;;;;;;;2.17;1.50;;;;;;;13.40;93.11;99279.72;4123411;28;20630;-88
2023/10/04 01:27:48;;;;;;;2.10;1.77;;;;;;;13.39;94.67;99283.25;4113257;28;20619;-89
2023/10/04 01:30:13;;;;;;;4.07;2.50;;;;;;;13.35;96.13;99284.38;4126403;28;20652;-89
2023/10/04 01:32:36;;;;;;;4.70;2.40;;;;;;;13.34;96.72;99285.31;4137152;28;20687;-89
2023/10/04 01:34:59;;;;;;;5.83;2.50;;;;;;;13.30;96.61;99281.19;4128727;28;20622;-89
2023/10/04 01:37:23;;;;;;;3.17;2.50;;;;;;;13.27;96.89;99289.22;4127051;28;20649;-88
2023/10/04 01:39:47;;;;;;;5.17;2.23;;;;;;;13.17;94.92;99288.13;4125668;28;20641;-87
2023/10/04 01:42:11;;;;;;;9.17;3.00;;;;;;;13.11;95.65;99288.47;4124090;28;20636;-88
2023/10/04 01:44:29;;;;;;;4.90;2.50;;;;;;;13.05;94.86;99298.44;4125098;28;20655;-89
2023/10/04 01:46:53;;;;;;;4.63;1.90;;;;;;;13.00;96.47;99288.25;4113167;28;20630;-89
2023/10/04 01:49:16;;;;;;;3.87;2.60;;;;;;;12.97;96.48;99292.84;4126507;28;20634;-89
2023/10/04 01:51:42;;;;;;;2.90;1.80;;;;;;;12.95;97.78;99297.31;4127680;28;20640;-89
2023/10/04 01:54:08;;;;;;;4.40;1.80;;;;;;;12.95;98.05;99292.09;4121541;28;21533;-89
2023/10/04 01:56:32;;;;;;;3.00;2.07;;;;;;;12.97;97.10;99288.44;4126691;28;20616;-89
2023/10/04 01:58:57;;;;;;;2.80;2.20;;;;;;;12.98;97.66;99287.50;4129889;28;20652;-89
2023/10/04 02:01:21;;;;;;;3.33;2.30;;;;;;;12.98;96.53;99292.75;4120730;28;20617;-85
2023/10/04 02:03:44;;;;;;;3.00;2.30;;;;;;;13.00;96.54;99296.09;4109612;28;20901;-85
2023/10/04 02:06:08;;;;;;;5.37;2.40;;;;;;;12.97;96.70;99298.91;4117103;28;21178;-86
2023/10/04 02:08:12;;;;;;;3.27;2.20;;;;;;;12.94;96.08;99291.22;4115956;28;20723;-85
2023/10/04 02:10:17;;;;;;;2.30;1.80;;;;;;;12.96;95.67;99294.63;4120518;28;20646;-85
2023/10/04 02:12:24;;;;;;;3.27;1.87;;;;;;;12.94;97.58;99293.00;4109933;28;20668;-85
2023/10/04 02:14:41;;;;;;;2.80;1.90;;;;;;;12.91;96.94;99299.25;4122819;28;21199;-86
2023/10/04 02:16:44;;;;;;;2.47;1.93;;;;;;;12.88;96.84;99291.56;4126452;28;21040;-86
2023/10/04 02:18:48;;;;;;;2.37;1.60;;;;;;;12.87;97.11;99304.75;4126444;28;21274;-86
2023/10/04 02:20:53;;;;;;;3.00;1.77;;;;;;;12.86;95.09;99298.69;4133348;28;20640;-86
2023/10/04 02:22:58;;;;;;;1.90;1.53;;;;;;;12.84;94.44;99292.72;4138120;28;20728;-86
2023/10/04 02:25:01;;;;;;;8.47;2.50;;;;;;;12.81;95.66;99292.84;4125506;28;20688;-86
2023/10/04 02:27:06;;;;;;;3.47;2.00;;;;;;;12.81;96.27;99299.88;4122521;28;20666;-86
2023/10/04 02:29:12;;;;;;;4.70;2.20;;;;;;;12.77;96.13;99291.34;4125276;28;21107;-86
2023/10/04 02:31:16;;;;;;;2.33;1.90;;;;;;;12.78;96.95;99298.25;4108622;28;21265;-86
2023/10/04 02:33:19;;;;;;;5.23;2.37;;;;;;;12.81;98.08;99303.31;4126100;28;21065;-85
2023/10/04 02:35:25;;;;;;;5.67;2.47;;;;;;;12.80;97.16;99300.78;4120456;28;22562;-86
2023/10/04 02:37:30;;;;;;;3.07;1.53;;;;;;;12.77;96.07;99300.97;4107921;28;21308;-85
2023/10/04 02:39:37;;;;;;;2.93;1.97;;;;;;;12.73;94.82;99300.31;4123349;28;21336;-85
2023/10/04 02:41:41;;;;;;;12.20;2.03;;;;;;;12.66;95.00;99310.34;4122160;28;20664;-85
2023/10/04 02:43:45;;;;;;;3.90;2.17;;;;;;;12.58;93.55;99307.34;4124948;28;20646;-86
2023/10/04 02:45:50;;;;;;;3.90;2.03;;;;;;;12.49;95.55;99303.47;4123472;28;20758;-85
2023/10/04 02:47:55;;;;;;;4.23;2.03;;;;;;;12.49;94.64;99303.47;4126073;28;20627;-85
2023/10/04 02:49:57;;;;;;;2.73;2.00;;;;;;;12.51;95.66;99306.00;4124990;28;20648;-85
2023/10/04 02:52:02;;;;;;;2.60;2.10;;;;;;;12.48;97.29;99303.53;4122389;28;20633;-85
2023/10/04 02:54:06;;;;;;;4.20;1.90;;;;;;;12.45;93.93;99301.13;4121031;28;20644;-85
2023/10/04 02:56:10;;;;;;;2.80;2.10;;;;;;;12.41;95.86;99312.69;4107199;28;20751;-85
2023/10/04 02:58:20;;;;;;;2.33;1.83;;;;;;;12.42;95.32;99311.78;4123318;28;21179;-85
2023/10/04 03:00:24;;;;;;;2.40;1.93;;;;;;;12.38;94.77;99316.31;4126000;28;21188;-85
2023/10/04 03:02:33;;;;;;;4.00;2.50;;;;;;;12.42;95.80;99317.00;4123764;28;20640;-85
2023/10/04 03:04:39;;;;;;;4.93;2.60;;;;;;;12.43;94.33;99316.91;4122877;28;21064;-85
2023/10/04 03:06:43;;;;;;;3.57;2.20;;;;;;;12.43;93.52;99313.44;4123567;28;20635;-85
2023/10/04 03:08:47;;;;;;;3.73;2.47;;;;;;;12.42;96.28;99314.38;4106756;28;20652;-85
2023/10/04 03:10:55;;;;;;;2.90;2.30;;;;;;;12.42;95.14;99314.38;4109920;28;20636;-88
2023/10/04 03:13:03;;;;;;;2.90;2.27;;;;;;;12.39;96.40;99312.78;4125141;28;21219;-87
2023/10/04 03:15:10;;;;;;;3.37;2.43;;;;;;;12.43;98.40;99318.66;4123303;28;20631;-89
2023/10/04 03:17:15;;;;;;;4.10;2.70;;;;;;;12.43;98.12;99310.81;4126963;28;21113;-89
2023/10/04 03:19:25;;;;;;;6.83;2.80;;;;;;;12.46;99.28;99311.50;4124278;28;20659;-88
2023/10/04 03:21:30;;;;;;;3.43;2.43;;;;;;;12.50;97.54;99309.56;4111685;28;20687;-89
2023/10/04 03:23:35;;;;;;;9.03;2.73;;;;;;;12.50;99.08;99310.38;4106025;28;20725;-88
2023/10/04 03:25:44;;;;;;;5.63;2.63;;;;;;;12.48;97.90;99309.66;4125328;28;20687;-89
2023/10/04 03:27:48;;;;;;;5.50;2.30;;;;;;;12.50;97.39;99320.03;4122090;28;20629;-88
2023/10/04 03:29:53;;;;;;;4.97;2.63;;;;;;;12.51;99.01;99317.31;4126772;28;20659;-89
2023/10/04 03:31:57;;;;;;;6.77;2.47;;;;;;;12.55;99.59;99325.84;4126482;28;20639;-88
2023/10/04 03:34:02;;;;;;;3.90;2.17;;;;;;;12.57;97.90;99332.69;4122832;28;21036;-89
2023/10/04 03:36:09;;;;;;;4.57;2.17;;;;;;;12.54;97.32;99326.75;4131903;28;20680;-89
2023/10/04 03:38:15;;;;;;;4.77;2.27;;;;;;;12.49;95.86;99327.00;4124029;28;21017;-88
2023/10/04 03:40:19;;;;;;;4.20;1.67;;;;;;;12.43;97.86;99324.78;4109222;28;21295;-87
2023/10/04 03:42:24;;;;;;;4.17;2.30;;;;;;;12.45;96.33;99327.31;4110597;28;20659;-88
2023/10/04 03:44:29;;;;;;;5.13;2.50;;;;;;;12.47;98.69;99321.03;4124627;28;20770;-89
2023/10/04 03:46:33;;;;;;;8.33;2.70;;;;;;;12.52;100.00;99326.84;4127097;28;20634;-89
2023/10/04 03:48:37;;;;;;;3.57;2.20;;;;;;;12.55;99.77;99325.84;4137776;28;20663;-89
2023/10/04 03:50:45;;;;;;;4.60;2.80;;;;;;;12.60;98.90;99331.66;4127640;28;21204;-89
2023/10/04 03:52:51;;;;;;;6.30;2.83;;;;;;;12.63;100.00;99332.34;4127718;28;20640;-89
2023/10/04 03:54:57;;;;;;;5.47;2.63;;;;;;;12.67;100.00;99333.00;4128749;28;20678;-88
2023/10/04 03:57:06;;;;;;;13.83;3.67;;;;;;;12.70;100.00;99334.53;4127393;28;20647;-88
2023/10/04 03:59:11;;;;;;;12.10;3.10;;;;;;;12.71;100.00;99338.81;4141584;28;20639;-89
2023/10/04 04:01:14;;;;;;;6.60;2.93;;;;;;;12.75;100.00;99329.03;4112521;28;20717;-88
2023/10/04 04:03:18;;;;;;;11.20;3.10;;;;;;;12.76;100.00;99322.84;4127209;28;20747;-89
2023/10/04 04:05:23;;;;;;;16.13;3.47;;;;;;;12.77;100.00;99332.38;4129156;28;20734;-89
2023/10/04 04:07:26;;;;;;;14.20;2.50;;;;;;;12.76;100.00;99333.31;4126754;28;20651;-89
2023/10/04 04:09:32;;;;;;;8.63;2.93;;;;;;;12.74;99.79;99336.00;4128374;28;20673;-89
2023/10/04 04:11:37;;;;;;;10.63;3.10;;;;;;;12.69;99.40;99338.06;4123533;28;20642;-89
2023/10/04 04:13:45;;;;;;;17.33;3.33;;;;;;;12.64;98.91;99334.00;4109884;28;20640;-87
2023/10/04 04:15:49;;;;;;;19.77;3.20;;;;;;;12.64;99.94;99341.84;4125156;28;20644;-89
2023/10/04 04:17:55;;;;;;;15.00;2.90;;;;;;;12.68;99.79;99344.22;4111340;28;20656;-89
2023/10/04 04:19:59;;;;;;;7.63;2.90;;;;;;;12.70;100.00;99337.13;4110254;28;20661;-86
2023/10/04 04:22:05;;;;;;;8.27;2.73;;;;;;;12.73;100.00;99336.97;4124775;28;21249;-86
2023/10/04 04:24:10;;;;;;;9.50;2.60;;;;;;;12.74;100.00;99343.03;4126862;28;20613;-86
2023/10/04 04:26:23;;;;;;;5.03;2.40;;;;;;;12.70;99.47;99345.00;4126623;28;21315;-85
2023/10/04 04:28:30;;;;;;;3.90;2.90;;;;;;;12.71;99.29;99337.97;4142724;28;20650;-86
2023/10/04 04:30:35;;;;;;;16.07;2.77;;;;;;;12.75;98.87;99336.88;4135341;28;20657;-86
2023/10/04 04:32:41;;;;;;;16.10;2.93;;;;;;;12.75;100.00;99339.50;4124074;28;20696;-85
2023/10/04 04:34:45;;;;;;;13.90;3.30;;;;;;;12.76;100.00;99339.41;4127319;28;20631;-85
2023/10/04 04:36:49;;;;;;;11.50;3.03;;;;;;;12.77;100.00;99346.31;4128206;28;21065;-86
2023/10/04 04:38:55;;;;;;;15.37;3.30;;;;;;;12.78;100.00;99341.94;4125487;28;20637;-86
2023/10/04 04:41:04;;;;;;;18.03;3.27;;;;;;;12.74;100.00;99346.47;4123415;28;20652;-85
2023/10/04 04:43:25;;;;;;;21.83;3.07;;;;;;;12.74;100.00;99356.13;4125423;28;20687;-86
2023/10/04 04:45:35;;;;;;;4.83;2.37;;;;;;;12.74;100.00;99349.09;4127127;28;21215;-86
2023/10/04 04:47:40;;;;;;;8.73;2.50;;;;;;;12.72;100.00;99352.75;4128402;28;20647;-86
2023/10/04 04:49:44;;;;;;;16.80;2.90;;;;;;;12.69;100.00;99353.75;4110103;28;20721;-86
2023/10/04 04:51:49;;;;;;;22.13;3.50;;;;;;;12.70;100.00;99365.06;4126872;28;20952;-85
2023/10/04 04:53:53;;;;;;;10.53;2.83;;;;;;;12.69;100.00;99358.16;4112397;28;20632;-85
2023/10/04 04:56:03;;;;;;;10.87;2.67;;;;;;;12.68;100.00;99355.63;4122916;28;20707;-86
2023/10/04 04:58:06;;;;;;;6.87;2.47;;;;;;;12.65;100.00;99356.63;4103908;28;21014;-85
2023/10/04 05:02:32;;;;;;;6.03;2.30;;;;;;;12.58;100.00;99359.69;4124201;28;20654;-85
2023/10/04 05:04:37;;;;;;;3.93;2.00;;;;;;;12.54;100.00;99353.78;4136347;28;20655;-86
2023/10/04 05:06:40;;;;;;;5.67;2.17;;;;;;;12.51;100.00;99351.34;4128781;28;21255;-89
2023/10/04 05:08:46;;;;;;;5.23;2.13;;;;;;;12.48;99.33;99353.25;4127277;28;21183;-86
2023/10/04 05:10:50;;;;;;;8.80;2.50;;;;;;;12.46;100.00;99357.75;4128738;28;21238;-86
2023/10/04 05:12:52;;;;;;;6.57;1.93;;;;;;;12.41;100.00;99355.38;4127649;28;20955;-86
2023/10/04 05:14:56;;;;;;;5.77;2.27;;;;;;;12.37;99.51;99355.66;4114374;28;20805;-85
2023/10/04 05:17:00;;;;;;;6.30;1.70;;;;;;;12.34;99.31;99363.66;4124411;28;20629;-84
2023/10/04 05:19:08;;;;;;;3.77;1.70;;;;;;;12.33;99.59;99354.97;4122646;28;21459;-85
2023/10/04 05:21:13;;;;;;;3.90;2.30;;;;;;;12.31;97.15;99351.59;4124838;28;21496;-87
2023/10/04 05:23:17;;;;;;;4.37;1.97;;;;;;;12.31;98.08;99358.59;4119534;28;20638;-87
2023/10/04 05:25:20;;;;;;;4.60;2.20;;;;;;;12.25;99.29;99356.31;4120008;28;21186;-85
2023/10/04 05:27:25;;;;;;;5.80;1.97;;;;;;;12.22;97.57;99360.88;4125099;28;20623;-86
2023/10/04 05:29:29;;;;;;;3.43;2.17;;;;;;;12.21;96.91;99360.03;4118002;28;20644;-85
2023/10/04 05:31:32;;;;;;;8.70;2.33;;;;;;;12.23;97.11;99355.56;4122084;28;20623;-86
2023/10/04 05:33:38;;;;;;;7.90;2.17;;;;;;;12.22;97.36;99360.88;4127187;28;20679;-86
2023/10/04 05:35:44;;;;;;;3.07;1.93;;;;;;;12.17;99.46;99355.91;4123662;28;20632;-85
2023/10/04 05:37:48;;;;;;;2.60;2.13;;;;;;;12.17;100.00;99358.50;4109578;28;20729;-85
2023/10/04 05:39:51;;;;;;;5.03;2.03;;;;;;;12.19;100.00;99364.50;4124222;28;20641;-85
2023/10/04 05:42:00;;;;;;;4.10;1.83;;;;;;;12.20;100.00;99362.75;4124895;28;20659;-86
2023/10/04 05:44:05;;;;;;;3.93;2.00;;;;;;;12.22;99.73;99364.31;4125274;28;21052;-86
2023/10/04 05:46:09;;;;;;;6.57;2.07;;;;;;;12.23;100.00;99373.88;4127624;28;20619;-86
2023/10/04 05:48:15;;;;;;;13.63;3.20;;;;;;;12.25;100.00;99378.09;4127279;28;20687;-86
2023/10/04 05:50:21;;;;;;;4.60;2.17;;;;;;;12.30;100.00;99380.47;4120448;28;20720;-85
2023/10/04 05:52:25;;;;;;;2.50;1.90;;;;;;;12.30;98.26;99378.69;4127190;28;20985;-86
2023/10/04 05:54:30;;;;;;;3.43;1.90;;;;;;;12.29;100.00;99384.84;4124112;28;21434;-86
2023/10/04 05:56:35;;;;;;;11.90;3.20;;;;;;;12.29;100.00;99379.59;4127908;28;20644;-86
2023/10/04 05:58:38;;;;;;;4.87;2.47;;;;;;;12.32;100.00;99383.84;4112247;28;20636;-86
2023/10/04 06:00:41;;;;;;;7.07;2.57;;;;;;;12.33;100.00;99377.69;4126543;28;20655;-86
2023/10/04 06:02:44;;;;;;;9.90;2.50;;;;;;;12.33;100.00;99381.13;4122959;28;20734;-86
2023/10/04 06:04:48;;;;;;;18.30;2.83;;;;;;;12.40;100.00;99385.13;4125811;28;21215;-85
2023/10/04 06:06:54;;;;;;;21.17;3.00;;;;;;;12.41;100.00;99388.56;4137776;28;20635;-86
2023/10/04 06:08:57;;;;;;;13.20;2.90;;;;;;;12.43;100.00;99387.56;4142604;28;20972;-86
2023/10/04 06:11:01;;;;;;;12.43;2.90;;;;;;;12.44;100.00;99391.84;4109952;28;20659;-86
2023/10/04 06:13:07;;;;;;;9.67;2.70;;;;;;;12.46;100.00;99394.38;4120279;28;21185;-86
2023/10/04 06:15:13;;;;;;;13.00;2.63;;;;;;;12.51;100.00;99401.06;4124817;28;21294;-86
2023/10/04 06:17:17;;;;;;;12.73;2.60;;;;;;;12.54;100.00;99392.19;4124292;28;20674;-86
2023/10/04 06:19:25;;;;;;;12.87;2.50;;;;;;;12.59;100.00;99396.25;4126271;28;20654;-86
2023/10/04 06:21:33;;;;;;;14.43;2.70;;;;;;;12.65;100.00;99395.91;4124354;28;20782;-86
2023/10/04 06:23:38;;;;;;;11.00;3.03;;;;;;;12.73;100.00;99401.53;4125856;28;20626;-86
2023/10/04 06:25:42;;;;;;;9.33;2.70;;;;;;;12.77;100.00;99409.13;4123744;28;20993;-86
2023/10/04 06:27:46;;;;;;;8.40;2.60;;;;;;;12.82;100.00;99399.31;4129147;28;20684;-86
2023/10/04 06:29:50;;;;;;;11.63;2.80;;;;;;;12.84;100.00;99402.69;4126648;28;20640;-86
2023/10/04 06:31:55;;;;;;;12.37;2.70;;;;;;;12.90;100.00;99402.34;4122424;28;21228;-86
2023/10/04 06:34:01;;;;;;;32.03;3.57;;;;;;;12.98;100.00;99413.22;4110100;28;21244;-86
2023/10/04 06:36:06;;;;;;;21.77;4.07;;;;;;;13.03;100.00;99410.31;4124762;28;21236;-86
2023/10/04 06:38:10;;;;;;;15.57;3.10;;;;;;;13.12;100.00;99418.50;4128668;28;20687;-86
2023/10/04 06:40:15;;;;;;;16.47;3.10;;;;;;;13.17;100.00;99421.72;4128274;28;20637;-86
2023/10/04 06:42:19;;;;;;;34.17;4.20;;;;;;;13.21;100.00;99431.06;4124634;28;20672;-86
2023/10/04 06:44:23;;;;;;;16.10;3.00;;;;;;;13.19;100.00;99432.94;4109202;28;20628;-85
2023/10/04 06:46:26;;;;;;;14.63;2.93;;;;;;;13.25;100.00;99422.13;4127625;28;20644;-86
2023/10/04 06:48:30;;;;;;;18.03;3.40;;;;;;;13.38;100.00;99428.31;4123765;28;20627;-86
2023/10/04 06:50:38;;;;;;;33.97;3.63;;;;;;;13.48;100.00;99429.47;4139742;28;20631;-86
2023/10/04 06:52:42;;;;;;;13.97;2.67;;;;;;;13.58;100.00;99431.47;4141012;28;20618;-86
2023/10/04 06:54:45;;;;;;;15.07;2.73;;;;;;;13.68;99.33;99451.81;4108779;28;21381;-85
2023/10/04 06:56:51;;;;;;;17.90;3.60;;;;;;;13.74;99.86;99447.97;4127789;28;20735;-87
2023/10/04 06:58:56;;;;;;;24.97;3.40;;;;;;;13.79;98.61;99444.16;4107382;28;20637;-86
2023/10/04 07:01:00;;;;;;;27.60;3.57;;;;;;;13.82;98.61;99441.34;4128248;28;20736;-86
2023/10/04 07:03:07;;;;;;;17.90;3.10;;;;;;;13.87;98.90;99443.69;4124535;28;20706;-86
2023/10/04 07:05:13;;;;;;;12.27;2.57;;;;;;;14.00;100.00;99449.91;4126500;28;20699;-85
2023/10/04 07:07:17;;;;;;;10.53;2.70;;;;;;;14.16;100.00;99448.88;4125272;28;21274;-82
2023/10/04 07:09:20;;;;;;;9.43;3.00;;;;;;;14.29;99.04;99452.47;4127076;28;20722;-84
2023/10/04 07:11:27;;;;;;;13.00;2.73;;;;;;;14.37;98.75;99452.81;4127240;28;21227;-84
2023/10/04 07:13:33;;;;;;;15.73;2.63;;;;;;;14.33;98.06;99457.44;4112347;28;20614;-84
2023/10/04 07:15:41;;;;;;;11.97;2.70;;;;;;;14.24;97.67;99449.28;4104815;28;20672;-86
2023/10/04 07:17:47;;;;;;;13.80;2.63;;;;;;;14.17;97.85;99447.97;4106530;28;22080;-85
2023/10/04 07:19:50;;;;;;;10.87;2.40;;;;;;;14.35;97.46;99457.34;4120724;28;20645;-86
2023/10/04 07:21:55;;;;;;;14.33;2.70;;;;;;;14.58;97.71;99460.22;4123731;28;20654;-86
2023/10/04 07:23:58;;;;;;;5.57;3.03;;;;;;;14.77;97.42;99466.00;4111861;28;20614;-86
2023/10/04 07:26:12;;;;;;;7.77;2.60;;;;;;;14.83;95.67;99466.44;4119390;28;21288;-85
2023/10/04 07:28:16;;;;;;;9.90;2.43;;;;;;;14.93;96.97;99461.44;4124796;28;20641;-85
2023/10/04 07:30:22;;;;;;;11.37;2.87;;;;;;;15.05;97.93;99465.94;4127460;28;20650;-85
2023/10/04 07:32:28;;;;;;;9.50;3.03;;;;;;;15.19;98.35;99466.78;4123082;28;20625;-85
2023/10/04 07:34:33;;;;;;;6.70;3.00;;;;;;;15.38;97.59;99475.13;4109007;28;21086;-86
2023/10/04 07:36:36;;;;;;;4.20;3.07;;;;;;;15.58;97.47;99468.47;4126237;28;20671;-86
2023/10/04 07:38:40;;;;;;;3.73;2.70;;;;;;;15.77;97.22;99479.47;4110466;28;20627;-86
2023/10/04 07:40:44;;;;;;;4.83;3.17;;;;;;;15.84;96.46;99480.72;4126302;28;20639;-85
2023/10/04 07:42:52;;;;;;;4.07;3.43;;;;;;;15.88;95.84;99479.56;4126516;28;20670;-85
2023/10/04 07:44:55;;;;;;;3.43;2.73;;;;;;;15.95;95.23;99486.13;4127377;28;20655;-86
2023/10/04 07:47:00;;;;;;;3.73;3.10;;;;;;;16.10;93.53;99482.41;4111329;28;20626;-86
2023/10/04 07:49:04;;;;;;;3.20;2.80;;;;;;;16.35;96.71;99487.72;4126108;28;21225;-86
2023/10/04 07:51:09;;;;;;;3.30;2.50;;;;;;;16.53;94.78;99487.28;4112936;28;20627;-90
2023/10/04 07:53:13;;;;;;;3.90;3.03;;;;;;;16.64;94.47;99488.25;4126958;28;20685;-89
2023/10/04 07:55:18;;;;;;;4.27;2.90;;;;;;;16.81;96.79;99493.16;4129090;28;21008;-88
2023/10/04 07:57:22;;;;;;;3.90;2.90;;;;;;;16.99;92.15;99490.03;4127981;28;20638;-89
2023/10/04 07:59:27;;;;;;;4.00;3.20;;;;;;;17.14;92.48;99486.31;4127614;28;21041;-89
2023/10/04 08:01:31;;;;;;;4.33;2.80;;;;;;;17.21;88.17;99484.09;4111678;28;20667;-88
2023/10/04 08:03:36;;;;;;;4.87;3.40;;;;;;;17.33;90.13;99488.47;4112492;28;20686;-88
2023/10/04 08:05:39;;;;;;;5.40;3.40;;;;;;;17.55;90.79;99482.34;4140296;28;20631;-88
2023/10/04 08:07:43;;;;;;;5.10;2.67;;;;;;;17.65;89.16;99485.13;4128430;28;20630;-89
2023/10/04 08:09:47;;;;;;;5.47;3.27;;;;;;;17.66;84.95;99485.00;4117748;28;20755;-87
2023/10/04 08:11:53;;;;;;;4.90;3.10;;;;;;;17.65;84.76;99478.06;4127325;28;20727;-88
2023/10/04 08:13:57;;;;;;;5.53;3.53;;;;;;;17.68;84.64;99488.41;4128115;28;20615;-89
2023/10/04 08:16:03;;;;;;;6.10;3.00;;;;;;;17.83;86.00;99489.03;4111441;28;20620;-89
2023/10/04 08:18:08;;;;;;;7.77;3.23;;;;;;;17.88;83.89;99474.53;4125204;28;20665;-88
2023/10/04 08:20:16;;;;;;;4.43;3.37;;;;;;;17.97;85.71;99479.97;4123752;28;20645;-88
2023/10/04 08:22:20;;;;;;;4.60;2.80;;;;;;;18.12;87.21;99483.25;4121022;28;20699;-88
2023/10/04 08:24:24;;;;;;;7.23;2.83;;;;;;;18.22;86.46;99474.53;4124951;28;20634;-88
2023/10/04 08:26:28;;;;;;;4.27;2.80;;;;;;;18.34;86.20;99475.38;4127090;28;20632;-89
2023/10/04 08:28:32;;;;;;;7.93;3.00;;;;;;;18.51;86.94;99479.25;4124854;28;20637;-88
2023/10/04 08:30:38;;;;;;;4.97;3.20;;;;;;;18.54;85.15;99481.63;4126419;28;20649;-88
2023/10/04 08:32:44;;;;;;;3.93;3.07;;;;;;;18.59;86.31;99473.34;4121701;28;20716;-88
2023/10/04 08:34:49;;;;;;;6.33;3.30;;;;;;;18.69;86.30;99467.22;4125045;28;21745;-89
2023/10/04 08:36:54;;;;;;;5.83;2.90;;;;;;;18.68;84.43;99465.53;4125386;28;20626;-89
2023/10/04 08:38:59;;;;;;;4.50;2.77;;;;;;;18.73;84.07;99454.59;4131917;28;20690;-88
2023/10/04 08:41:04;;;;;;;5.43;3.10;;;;;;;18.80;84.65;99453.97;4129418;28;20704;-88
2023/10/04 08:43:08;;;;;;;5.33;3.17;;;;;;;18.83;83.58;99456.38;4125080;28;20700;-88
2023/10/04 08:45:13;;;;;;;3.67;2.20;;;;;;;18.88;84.11;99453.38;4127244;28;20636;-88
2023/10/04 08:47:17;;;;;;;4.30;2.63;;;;;;;18.94;83.21;99456.38;4126746;28;20994;-89
2023/10/04 08:49:25;;;;;;;4.83;2.83;;;;;;;19.06;85.29;99463.34;4130456;28;20645;-90
2023/10/04 08:51:37;;;;;;;6.17;3.00;;;;;;;19.02;83.29;99469.88;4141678;28;20726;-89
2023/10/04 08:53:49;;;;;;;8.43;3.93;;;;;;;19.12;82.46;99460.22;4127044;28;20641;-90
2023/10/04 08:55:55;;;;;;;4.47;2.40;;;;;;;19.18;80.84;99457.06;4128371;28;20641;-90
2023/10/04 08:57:59;;;;;;;5.47;2.97;;;;;;;19.23;82.10;99461.03;4127297;28;20618;-89
2023/10/04 09:00:10;;;;;;;8.63;3.10;;;;;;;19.37;83.21;99450.16;4130231;28;20654;-90
2023/10/04 09:02:32;;;;;;;6.27;3.13;;;;;;;19.58;84.48;99456.34;4131987;28;21241;-90
2023/10/04 09:04:39;;;;;;;6.40;2.60;;;;;;;19.64;82.57;99459.31;4129427;28;20665;-90
2023/10/04 09:06:45;;;;;;;7.13;2.90;;;;;;;19.64;81.43;99448.72;4126575;28;20643;-90
2023/10/04 09:08:49;;;;;;;6.07;3.10;;;;;;;19.59;80.31;99444.75;4123959;28;21561;-90
2023/10/04 09:10:54;;;;;;;5.33;2.80;;;;;;;19.67;81.72;99440.50;4130664;28;20625;-90
2023/10/04 09:12:58;;;;;;;6.07;2.77;;;;;;;19.76;78.52;99438.91;4131041;28;20637;-89
2023/10/04 09:15:01;;;;;;;6.40;2.60;;;;;;;19.86;79.44;99444.19;4129938;28;21190;-89
2023/10/04 09:17:07;;;;;;;6.03;2.50;;;;;;;19.97;79.04;99444.09;4133177;28;20626;-90
2023/10/04 09:19:17;;;;;;;10.53;2.53;;;;;;;19.99;79.55;99443.97;4129166;28;20634;-90
2023/10/04 09:21:20;;;;;;;5.50;2.50;;;;;;;20.03;79.97;99435.63;4127710;28;20665;-89
2023/10/04 09:23:27;;;;;;;6.70;2.83;;;;;;;20.08;77.90;99437.91;4117684;28;20654;-89
2023/10/04 09:25:38;;;;;;;7.53;2.50;;;;;;;20.10;77.64;99430.66;4132278;28;20633;-90
2023/10/04 09:27:53;;;;;;;4.67;2.40;;;;;;;20.13;76.21;99430.38;4130403;28;20634;-89
2023/10/04 09:29:59;;;;;;;4.80;2.13;;;;;;;20.16;77.34;99428.34;4133209;28;20649;-89
2023/10/04 09:32:05;;;;;;;6.87;2.40;;;;;;;20.22;76.76;99426.94;4141552;28;21178;-90
2023/10/04 09:34:13;;;;;;;4.90;2.10;;;;;;;20.25;77.65;99430.19;4129580;28;20623;-89
2023/10/04 09:36:32;;;;;;;5.13;2.20;;;;;;;20.37;77.55;99421.16;4129653;28;20634;-90
2023/10/04 09:38:36;;;;;;;6.00;2.20;;;;;;;20.44;78.09;99431.09;4109301;28;21222;-90
2023/10/04 09:40:50;;;;;;;8.30;2.00;;;;;;;20.46;76.17;99423.03;4130761;28;20662;-89
2023/10/04 09:42:56;;;;;;;4.27;1.57;;;;;;;20.44;74.78;99417.84;4128613;28;20647;-89
2023/10/04 09:45:07;;;;;;;6.50;2.20;;;;;;;20.38;74.14;99417.56;4142688;28;20672;-90
2023/10/04 09:47:10;;;;;;;3.57;1.60;;;;;;;20.49;75.79;99426.28;4126867;28;20652;-90
2023/10/04 09:49:16;;;;;;;5.20;1.80;;;;;;;20.54;73.59;99418.75;4113698;28;21032;-89
2023/10/04 09:51:21;;;;;;;6.00;1.60;;;;;;;20.58;74.03;99414.00;4109604;28;20713;-88
2023/10/04 09:53:25;;;;;;;7.50;1.67;;;;;;;20.61;71.87;99406.63;4128968;28;20648;-92
2023/10/04 09:55:31;;;;;;;2.93;1.80;;;;;;;20.55;73.04;99415.13;4124223;28;20635;-90
2023/10/04 09:57:37;;;;;;;4.67;1.87;;;;;;;20.54;72.28;99413.44;4126704;28;20619;-91
2023/10/04 09:59:44;;;;;;;3.70;1.43;;;;;;;20.58;71.90;99406.91;4127322;28;20642;-93
2023/10/04 10:01:55;;;;;;;4.10;1.50;;;;;;;20.68;72.63;99410.44;4126845;28;21218;-94
2023/10/04 10:03:59;;;;;;;2.97;1.60;;;;;;;20.77;71.44;99395.53;4113928;28;20667;-91